Time;durP1;ratioP1;P1;durP2;ratioP2;P2;SDS_P1;SDS_P2;PMS_P1;PMS_P2;Temp;Humidity;BMP_temperature;BMP_pressure;BME280_temperature;BME280_humidity;BME280_pressure;Samples;Min_cycle;Max_cycle;Signal;HPM_P1;HPM_P2
2023/06/25 00:07:55;;;;;;;;;;;;;;;15.42;100.00;98027.00;18562549;32;20046;-49
2023/06/25 00:18:01;;;;;;;;;;;;;;;15.28;100.00;98018.72;18561362;32;19968;-48
2023/06/25 00:28:10;;;;;;;;;;;;;;;15.17;100.00;98020.78;18561363;31;20324;-50
2023/06/25 00:38:16;;;;;;;;;;;;;;;15.02;100.00;98013.59;18560836;32;20021;-50
2023/06/25 00:48:22;;;;;;;;;;;;;;;14.91;100.00;98014.81;18560503;32;20004;-49
2023/06/25 00:58:28;;;;;;;;;;;;;;;14.80;100.00;97999.69;18560052;32;19964;-51
2023/06/25 01:08:35;;;;;;;;;;;;;;;14.69;100.00;98001.72;18567686;32;19967;-48
2023/06/25 01:18:39;;;;;;;;;;;;;;;14.59;100.00;97994.44;18571815;31;20291;-49
2023/06/25 01:29:01;;;;;;;;;;;;;;;14.47;100.00;97981.25;18571279;31;19948;-52
2023/06/25 01:39:11;;;;;;;;;;;;;;;14.34;100.00;97968.31;18570757;32;19956;-48
2023/06/25 01:49:14;;;;;;;;;;;;;;;14.20;100.00;97966.25;18570231;32;19952;-50
2023/06/25 01:59:34;;;;;;;;;;;;;;;14.14;100.00;97961.16;18569630;32;19995;-50
2023/06/25 02:09:37;;;;;;;;;;;;;;;14.04;100.00;97960.13;18568915;32;20333;-49
2023/06/25 02:19:40;;;;;;;;;;;;;;;13.93;100.00;97955.88;18568132;32;19953;-52
2023/06/25 02:29:43;;;;;;;;;;;;;;;13.83;100.00;97945.13;18567480;31;19975;-50
2023/06/25 02:39:46;;;;;;;;;;;;;;;13.75;100.00;97949.25;18567004;32;19945;-49
2023/06/25 02:49:49;;;;;;;;;;;;;;;13.65;100.00;97943.87;18566496;32;19965;-49
2023/06/25 02:59:52;;;;;;;;;;;;;;;13.57;100.00;97953.47;18565740;32;19957;-50
2023/06/25 03:09:55;;;;;;;;;;;;;;;13.44;100.00;97951.37;18564796;31;20016;-49
2023/06/25 03:19:58;;;;;;;;;;;;;;;13.36;100.00;97961.75;18564465;32;19964;-51
2023/06/25 03:30:01;;;;;;;;;;;;;;;13.29;100.00;97963.09;18549122;32;19964;-50
2023/06/25 03:40:06;;;;;;;;;;;;;;;13.19;100.00;97962.06;18563237;32;19952;-48
2023/06/25 03:50:09;;;;;;;;;;;;;;;13.13;100.00;97951.50;18562731;32;20325;-51
2023/06/25 04:00:12;;;;;;;;;;;;;;;13.13;100.00;97946.91;18562602;32;19957;-49
2023/06/25 04:10:15;;;;;;;;;;;;;;;13.13;100.00;97937.94;18561738;32;19991;-50
2023/06/25 04:20:19;;;;;;;;;;;;;;;13.17;100.00;97934.38;18547204;32;20024;-51
2023/06/25 04:30:22;;;;;;;;;;;;;;;13.27;100.00;97928.09;18560665;32;19953;-53
2023/06/25 04:40:25;;;;;;;;;;;;;;;13.46;100.00;97925.56;18550593;32;19988;-50
2023/06/25 04:50:28;;;;;;;;;;;;;;;13.65;100.00;97933.00;18573704;32;19993;-49
2023/06/25 05:00:31;;;;;;;;;;;;;;;13.84;100.00;97936.66;18573043;31;19982;-49
2023/06/25 05:10:36;;;;;;;;;;;;;;;14.10;100.00;97933.72;18572582;32;19952;-49
2023/06/25 05:20:39;;;;;;;;;;;;;;;14.44;100.00;97943.69;18571784;32;19952;-49
2023/06/25 05:30:42;;;;;;;;;;;;;;;14.74;100.00;97945.31;18571322;32;19965;-49
2023/06/25 05:40:45;;;;;;;;;;;;;;;15.13;100.00;97950.81;18570841;32;19979;-50
2023/06/25 05:50:48;;;;;;;;;;;;;;;15.48;100.00;97949.50;18569575;32;19948;-52
2023/06/25 06:00:52;;;;;;;;;;;;;;;15.95;100.00;97941.47;18569292;32;19963;-50
2023/06/25 06:10:56;;;;;;;;;;;;;;;16.43;100.00;97941.16;18568786;32;19971;-50
2023/06/25 06:21:00;;;;;;;;;;;;;;;17.03;100.00;97952.28;18553958;32;19968;-52
2023/06/25 06:31:03;;;;;;;;;;;;;;;17.62;100.00;97955.91;18553156;32;19952;-53
2023/06/25 06:41:05;;;;;;;;;;;;;;;18.23;100.00;97949.25;18567058;32;19957;-53
2023/06/25 06:51:08;;;;;;;;;;;;;;;18.86;100.00;97955.50;18551753;31;19957;-52
2023/06/25 07:01:10;;;;;;;;;;;;;;;19.43;100.00;97949.19;18565111;32;19948;-50
2023/06/25 07:11:16;;;;;;;;;;;;;;;20.00;100.00;97957.59;18565115;32;19979;-49
2023/06/25 07:21:19;;;;;;;;;;;;;;;20.47;100.00;97950.22;18564677;32;19956;-50
2023/06/25 07:31:22;;;;;;;;;;;;;;;21.01;100.00;97945.28;18563931;32;19956;-51
2023/06/25 07:41:24;;;;;;;;;;;;;;;21.48;93.56;97947.91;18563107;32;20018;-50
2023/06/25 07:51:27;;;;;;;;;;;;;;;21.85;85.33;97959.13;18548116;32;19982;-50
2023/06/25 08:01:33;;;;;;;;;;;;;;;22.32;79.49;97958.00;18562217;32;20333;-51
2023/06/25 08:11:36;;;;;;;;;;;;;;;22.73;71.12;97952.72;18562004;32;19952;-53
2023/06/25 08:21:39;;;;;;;;;;;;;;;23.14;67.30;97942.63;18561410;32;19948;-49
2023/06/25 08:31:42;;;;;;;;;;;;;;;23.58;66.44;97940.00;18560952;32;19959;-54
2023/06/25 08:41:44;;;;;;;;;;;;;;;23.96;65.27;97948.97;18560609;31;19976;-55
2023/06/25 08:51:47;;;;;;;;;;;;;;;24.37;66.40;97950.47;18560317;32;20004;-54
2023/06/25 09:01:51;;;;;;;;;;;;;;;24.63;63.07;97940.91;18560176;32;20012;-51
2023/06/25 09:11:54;;;;;;;;;;;;;;;25.03;60.43;97934.34;18559965;32;19969;-56
2023/06/25 09:21:56;;;;;;;;;;;;;;;25.41;54.82;97917.41;18545375;32;19952;-52
2023/06/25 09:32:06;;;;;;;;;;;;;;;25.61;51.80;97913.47;18569432;32;20002;-54
2023/06/25 09:42:09;;;;;;;;;;;;;;;25.98;53.14;97910.28;18556293;32;20017;-54
2023/06/25 09:52:15;;;;;;;;;;;;;;;26.38;52.82;97911.81;18570087;32;19949;-52
2023/06/25 10:02:19;;;;;;;;;;;;;;;26.75;52.91;97916.03;18569363;32;19965;-53
2023/06/25 10:12:24;;;;;;;;;;;;;;;27.11;51.39;97915.75;18568979;32;19993;-54
2023/06/25 10:22:28;;;;;;;;;;;;;;;27.40;45.62;97908.66;18541232;32;19952;-51
2023/06/25 10:32:30;;;;;;;;;;;;;;;27.63;49.51;97916.88;18567122;32;19993;-52
2023/06/25 10:42:36;;;;;;;;;;;;;;;28.04;50.40;97913.41;18566947;32;20015;-52
2023/06/25 10:52:41;;;;;;;;;;;;;;;28.39;43.20;97906.59;18567094;32;19967;-51
2023/06/25 11:02:48;;;;;;;;;;;;;;;28.66;46.04;97898.13;18565927;32;19965;-55
2023/06/25 11:12:52;;;;;;;;;;;;;;;28.92;44.92;97891.53;18565138;32;19980;-51
2023/06/25 11:22:55;;;;;;;;;;;;;;;29.22;40.03;97884.97;18564216;32;19994;-53
2023/06/25 11:33:15;;;;;;;;;;;;;;;29.35;40.66;97877.09;18563628;32;20298;-55
2023/06/25 11:43:21;;;;;;;;;;;;;;;29.71;41.86;97868.88;18563398;32;20001;-51
2023/06/25 11:53:24;;;;;;;;;;;;;;;30.02;39.06;97870.16;18562534;32;20446;-52
2023/06/25 12:03:27;;;;;;;;;;;;;;;30.43;41.08;97867.03;18562185;32;19987;-53
2023/06/25 12:13:31;;;;;;;;;;;;;;;30.79;42.53;97860.66;18547870;32;19988;-55
2023/06/25 12:23:36;;;;;;;;;;;;;;;31.17;41.67;97849.81;18547357;32;19981;-54
2023/06/25 12:33:40;;;;;;;;;;;;;;;31.77;44.00;97842.41;18546509;32;19963;-55
2023/06/25 12:43:43;;;;;;;;;;;;;;;32.24;44.87;97839.31;18560981;32;20284;-54
2023/06/25 12:53:46;;;;;;;;;;;;;;;32.72;43.23;97834.16;18560426;32;19960;-54
2023/06/25 13:03:49;;;;;;;;;;;;;;;32.91;41.26;97815.97;18552780;32;19964;-53
2023/06/25 13:13:53;;;;;;;;;;;;;;;33.35;38.22;97822.66;18572430;31;19945;-51
2023/06/25 13:23:57;;;;;;;;;;;;;;;33.62;40.08;97807.91;18571842;32;19956;-56
2023/06/25 13:33:59;;;;;;;;;;;;;;;33.86;38.59;97808.00;18571116;32;19960;-55
2023/06/25 13:44:02;;;;;;;;;;;;;;;34.37;39.50;97805.19;18570705;32;20250;-55
2023/06/25 13:54:05;;;;;;;;;;;;;;;34.83;35.81;97806.41;18570025;32;19960;-56
2023/06/25 14:04:08;;;;;;;;;;;;;;;35.07;37.30;97804.34;18569777;32;20008;-55
2023/06/25 14:14:12;;;;;;;;;;;;;;;35.58;36.65;97797.69;18568462;32;19964;-54
2023/06/25 14:24:15;;;;;;;;;;;;;;;35.70;37.02;97797.03;18541337;32;19953;-54
2023/06/25 14:34:18;;;;;;;;;;;;;;;36.03;35.31;97787.84;18567641;32;20324;-56
2023/06/25 14:44:21;;;;;;;;;;;;;;;36.39;33.58;97775.72;18567032;32;19983;-56
2023/06/25 14:54:24;;;;;;;;;;;;;;;36.51;32.46;97772.19;18552266;32;19963;-53
2023/06/25 15:04:27;;;;;;;;;;;;;;;36.12;31.88;97757.84;18565654;32;19990;-53
2023/06/25 15:14:31;;;;;;;;;;;;;;;34.21;33.53;97749.72;18565288;32;20026;-52
2023/06/25 15:24:34;;;;;;;;;;;;;;;33.35;36.28;97744.19;18564065;32;19964;-53
2023/06/25 15:34:37;;;;;;;;;;;;;;;32.34;40.04;97731.34;18549274;32;19949;-53
2023/06/25 15:44:40;;;;;;;;;;;;;;;31.48;43.39;97726.38;18563489;32;19956;-53
2023/06/25 15:54:43;;;;;;;;;;;;;;;31.04;41.39;97711.84;18548322;31;20278;-52
2023/06/25 16:04:46;;;;;;;;;;;;;;;30.83;44.98;97709.91;18562355;32;20415;-50
2023/06/25 16:14:49;;;;;;;;;;;;;;;30.46;43.19;97700.06;18561744;32;19964;-50
2023/06/25 16:24:51;;;;;;;;;;;;;;;30.11;47.01;97687.75;18561776;32;19968;-49
2023/06/25 16:34:54;;;;;;;;;;;;;;;29.77;49.51;97690.94;18566997;32;19967;-51
2023/06/25 16:44:58;;;;;;;;;;;;;;;29.96;50.41;97687.78;18582393;32;20321;-51
2023/06/25 16:55:01;;;;;;;;;;;;;;;30.22;50.16;97683.75;18582117;32;19967;-54
2023/06/25 17:05:05;;;;;;;;;;;;;;;29.45;53.53;97683.34;18581892;32;20238;-49
2023/06/25 17:15:08;;;;;;;;;;;;;;;28.74;60.84;97664.06;18581449;32;20042;-51
2023/06/25 17:25:11;;;;;;;;;;;;;;;28.70;63.38;97671.59;18568017;32;20360;-54
2023/06/25 17:35:14;;;;;;;;;;;;;;;28.26;68.00;97668.94;18580838;32;19971;-55
2023/06/25 17:45:18;;;;;;;;;;;;;;;28.08;73.13;97683.53;18578221;31;19969;-55
2023/06/25 17:55:23;;;;;;;;;;;;;;;27.65;76.81;97686.72;18570090;32;20260;-55
2023/06/25 18:05:29;;;;;;;;;;;;;;;28.10;71.55;97694.28;18569951;32;20604;-54
2023/06/25 18:15:38;;;;;;;;;;;;;;;33.00;52.61;97715.44;18569170;32;19961;-56
2023/06/25 18:25:41;;;;;;;;;;;;;;;34.81;43.41;97723.78;18568272;31;19968;-55
2023/06/25 18:35:45;;;;;;;;;;;;;;;29.66;56.64;97699.31;18552986;32;20256;-53
2023/06/25 18:45:49;;;;;;;;;;;;;;;27.07;72.82;97702.00;18553100;32;19991;-53
2023/06/25 18:55:52;;;;;;;;;;;;;;;25.70;85.84;97694.50;18566048;32;19948;-53
2023/06/25 19:05:55;;;;;;;;;;;;;;;24.78;94.65;97695.16;18538595;32;20230;-53
2023/06/25 19:15:57;;;;;;;;;;;;;;;24.10;100.00;97689.69;18538115;32;19960;-51
2023/06/25 19:26:01;;;;;;;;;;;;;;;23.53;100.00;97702.91;18564303;31;19952;-54
2023/06/25 19:36:06;;;;;;;;;;;;;;;23.02;100.00;97704.31;18563778;31;19967;-53
2023/06/25 19:46:10;;;;;;;;;;;;;;;22.55;100.00;97710.44;18563057;32;20031;-54
2023/06/25 19:56:14;;;;;;;;;;;;;;;22.07;100.00;97709.34;18562703;32;19980;-54
2023/06/25 20:06:19;;;;;;;;;;;;;;;21.66;100.00;97711.94;18562191;32;19956;-53
2023/06/25 20:16:24;;;;;;;;;;;;;;;21.26;100.00;97724.31;18561724;32;19960;-54
2023/06/25 20:26:27;;;;;;;;;;;;;;;20.90;100.00;97741.47;18561385;32;20011;-52
2023/06/25 20:36:30;;;;;;;;;;;;;;;20.56;100.00;97744.16;18560775;32;20024;-51
2023/06/25 20:46:34;;;;;;;;;;;;;;;20.31;100.00;97743.97;18561206;32;19964;-53
2023/06/25 20:56:37;;;;;;;;;;;;;;;20.04;100.00;97756.25;18560608;32;19957;-52
2023/06/25 21:06:41;;;;;;;;;;;;;;;19.83;100.00;97756.19;18560298;32;20008;-54
2023/06/25 21:16:45;;;;;;;;;;;;;;;19.67;100.00;97763.31;18559970;32;19968;-51
2023/06/25 21:26:47;;;;;;;;;;;;;;;19.51;100.00;97769.31;18568279;32;20302;-52
2023/06/25 21:36:50;;;;;;;;;;;;;;;19.45;100.00;97762.41;18571316;32;19961;-51
2023/06/25 21:46:53;;;;;;;;;;;;;;;19.39;100.00;97769.16;18571169;32;19993;-52
2023/06/25 21:56:57;;;;;;;;;;;;;;;19.32;100.00;97777.09;18570223;32;20000;-51
2023/06/25 22:07:00;;;;;;;;;;;;;;;19.25;100.00;97766.63;18569563;32;19997;-54
2023/06/25 22:17:04;;;;;;;;;;;;;;;19.19;100.00;97776.94;18569351;31;19956;-50
2023/06/25 22:27:07;;;;;;;;;;;;;;;19.07;100.00;97774.84;18568210;32;19983;-51
2023/06/25 22:37:10;;;;;;;;;;;;;;;19.00;100.00;97784.69;18567481;32;19956;-53
2023/06/25 22:47:13;;;;;;;;;;;;;;;18.86;100.00;97784.84;18540142;32;20323;-52
2023/06/25 22:57:16;;;;;;;;;;;;;;;18.70;100.00;97782.53;18566539;32;19953;-51
2023/06/25 23:07:19;;;;;;;;;;;;;;;18.55;100.00;97772.88;18565892;32;20276;-54
2023/06/25 23:17:21;;;;;;;;;;;;;;;18.39;100.00;97774.44;18565028;32;20005;-50
2023/06/25 23:27:24;;;;;;;;;;;;;;;18.22;100.00;97781.50;18550351;31;19972;-49
2023/06/25 23:37:27;;;;;;;;;;;;;;;18.05;100.00;97781.44;18564357;32;20020;-53
2023/06/25 23:47:29;;;;;;;;;;;;;;;17.93;100.00;97782.84;18548663;32;20294;-54
2023/06/25 23:57:32;;;;;;;;;;;;;;;17.82;100.00;97791.63;18563543;32;19949;-51
